Time;durP1;ratioP1;P1;durP2;ratioP2;P2;SDS_P1;SDS_P2;PMS_P1;PMS_P2;Temp;Humidity;BMP_temperature;BMP_pressure;BME280_temperature;BME280_humidity;BME280_pressure;Samples;Min_cycle;Max_cycle;Signal;HPM_P1;HPM_P2
2021/04/26 00:01:29;;;;;;;8.20;3.50;;;6.60;77.40;;;;;;5032816;28;20026;-85
2021/04/26 00:03:55;;;;;;;10.33;3.57;;;6.60;77.80;;;;;;5032330;28;20029;-85
2021/04/26 00:06:20;;;;;;;9.73;3.50;;;6.60;77.90;;;;;;5031946;28;20103;-85
2021/04/26 00:08:46;;;;;;;10.57;3.33;;;6.60;78.00;;;;;;5033656;28;20028;-84
2021/04/26 00:11:12;;;;;;;12.97;4.03;;;6.50;78.30;;;;;;5033580;28;20022;-84
2021/04/26 00:13:37;;;;;;;12.67;4.10;;;6.50;78.80;;;;;;5032127;28;20466;-84
2021/04/26 00:16:03;;;;;;;12.03;3.40;;;6.50;78.40;;;;;;5032088;28;20022;-84
2021/04/26 00:18:29;;;;;;;13.33;3.90;;;6.50;78.70;;;;;;5049622;28;20022;-84
2021/04/26 00:20:55;;;;;;;12.27;3.17;;;6.50;78.90;;;;;;5031017;28;20079;-85
2021/04/26 00:23:20;;;;;;;13.80;3.87;;;6.50;78.80;;;;;;5033933;28;20021;-84
2021/04/26 00:25:46;;;;;;;13.93;3.63;;;6.60;78.30;;;;;;5034108;28;20102;-84
2021/04/26 00:28:12;;;;;;;12.93;3.50;;;6.60;78.20;;;;;;5034170;28;20079;-84
2021/04/26 00:30:38;;;;;;;11.03;3.67;;;6.60;78.70;;;;;;5050755;28;20036;-86
2021/04/26 00:33:04;;;;;;;12.23;4.13;;;6.60;78.40;;;;;;5036393;28;20370;-86
2021/04/26 00:35:29;;;;;;;10.10;3.70;;;6.70;78.10;;;;;;5052804;28;20106;-84
2021/04/26 00:37:56;;;;;;;9.83;3.80;;;6.60;77.90;;;;;;5037508;28;20097;-85
2021/04/26 00:40:22;;;;;;;13.63;4.43;;;6.60;78.40;;;;;;5032003;28;20029;-84
2021/04/26 00:42:48;;;;;;;12.80;4.27;;;6.60;78.70;;;;;;5030188;28;20344;-84
2021/04/26 00:45:17;;;;;;;9.00;3.67;;;6.70;78.50;;;;;;5030777;28;20026;-84
2021/04/26 00:47:44;;;;;;;8.83;3.70;;;6.70;78.60;;;;;;5030330;28;20049;-84
2021/04/26 00:50:13;;;;;;;12.70;4.40;;;6.70;78.60;;;;;;5029661;28;20124;-85
2021/04/26 00:52:39;;;;;;;;;;;6.80;77.90;;;;;;5030301;28;20017;-84
2021/04/26 00:55:06;;;;;;;10.23;4.33;;;6.80;77.80;;;;;;5032024;28;19943;-84
2021/04/26 00:57:31;;;;;;;11.27;4.50;;;6.90;77.80;;;;;;5031748;28;20084;-85
2021/04/26 00:59:57;;;;;;;12.97;4.63;;;6.90;77.80;;;;;;5035136;28;20060;-84
2021/04/26 01:02:26;;;;;;;12.83;4.97;;;6.90;77.70;;;;;;5035853;28;20508;-84
2021/04/26 01:04:53;;;;;;;13.48;4.95;;;6.90;77.40;;;;;;5036090;28;20075;-84
2021/04/26 01:07:19;;;;;;;13.83;5.00;;;7.00;77.30;;;;;;5035750;28;20029;-84
2021/04/26 01:09:45;;;;;;;12.23;5.03;;;7.00;77.30;;;;;;5035555;28;20021;-83
2021/04/26 01:12:35;;;;;;;13.53;4.67;;;7.00;76.90;;;;;;5034282;28;20478;-84
2021/04/26 01:15:16;;;;;;;9.83;4.60;;;7.20;76.50;;;;;;5034588;28;20032;-84
2021/04/26 01:18:02;;;;;;;10.90;5.03;;;7.20;76.50;;;;;;5034387;28;20029;-85
2021/04/26 01:20:55;;;;;;;11.90;4.80;;;7.30;75.90;;;;;;5033593;28;20124;-84
2021/04/26 01:23:59;;;;;;;18.83;6.17;;;7.20;75.70;;;;;;5037102;28;20501;-84
2021/04/26 01:26:34;;;;;;;13.13;5.60;;;7.30;76.30;;;;;;5035751;28;20088;-85
2021/04/26 01:29:42;;;;;;;12.80;4.90;;;7.20;76.10;;;;;;5036539;28;20034;-84
2021/04/26 01:32:34;;;;;;;17.17;4.88;;;7.20;76.10;;;;;;5013205;28;20037;-84
2021/04/26 01:35:02;;;;;;;12.47;4.80;;;7.10;76.30;;;;;;5034675;28;20375;-84
2021/04/26 01:37:31;;;;;;;12.07;4.90;;;7.30;76.20;;;;;;5034077;28;20055;-84
2021/04/26 01:39:58;;;;;;;14.55;4.82;;;7.30;76.10;;;;;;5034834;28;20429;-85
2021/04/26 01:42:24;;;;;;;8.33;4.67;;;7.30;75.80;;;;;;5035492;28;20087;-85
2021/04/26 01:44:50;;;;;;;12.87;4.60;;;7.20;76.10;;;;;;5033701;28;20049;-85
2021/04/26 01:47:17;;;;;;;12.17;5.00;;;7.10;77.10;;;;;;5035096;28;20129;-84
2021/04/26 01:49:43;;;;;;;13.90;5.27;;;7.10;76.70;;;;;;5049109;28;20441;-86
2021/04/26 01:52:11;;;;;;;13.93;4.87;;;7.10;76.70;;;;;;5034618;28;20096;-85
2021/04/26 01:54:37;;;;;;;13.30;4.90;;;7.10;76.60;;;;;;5033434;28;20026;-84
2021/04/26 01:57:04;;;;;;;12.50;4.63;;;7.20;76.20;;;;;;5034862;28;20101;-84
2021/04/26 01:59:32;;;;;;;9.87;4.30;;;7.20;75.40;;;;;;5034335;28;20029;-84
2021/04/26 02:01:58;;;;;;;9.97;4.37;;;7.20;75.10;;;;;;5033219;28;20112;-84
2021/04/26 02:04:31;;;;;;;10.60;4.50;;;7.20;74.50;;;;;;5033166;28;20032;-84
2021/04/26 02:06:58;;;;;;;11.07;4.60;;;7.20;74.10;;;;;;5033191;28;20458;-84
2021/04/26 02:09:25;;;;;;;8.43;4.13;;;7.30;73.70;;;;;;5032308;28;20051;-85
2021/04/26 02:11:52;;;;;;;10.93;4.60;;;7.30;73.30;;;;;;5033585;28;20606;-84
2021/04/26 02:14:18;;;;;;;11.03;4.07;;;7.30;73.30;;;;;;5033771;28;20041;-84
2021/04/26 02:16:45;;;;;;;11.77;4.27;;;7.30;73.30;;;;;;5032868;28;20113;-85
2021/04/26 02:19:11;;;;;;;11.67;4.97;;;7.30;73.20;;;;;;5034527;28;20544;-84
2021/04/26 02:21:40;;;;;;;7.57;4.33;;;7.20;72.90;;;;;;5034893;28;20136;-84
2021/04/26 02:24:10;;;;;;;8.00;3.92;;;7.20;72.90;;;;;;5034653;28;20048;-85
2021/04/26 02:26:36;;;;;;;11.13;3.83;;;7.20;73.00;;;;;;5030892;28;20030;-84
2021/04/26 02:29:03;;;;;;;14.57;4.33;;;7.10;73.40;;;;;;5033008;28;20083;-84
2021/04/26 02:31:34;;;;;;;13.90;4.47;;;7.00;73.80;;;;;;5033024;28;20033;-84
2021/04/26 02:34:10;;;;;;;10.43;4.43;;;7.00;73.70;;;;;;5049593;28;20395;-84
2021/04/26 02:36:41;;;;;;;10.13;4.10;;;7.00;73.80;;;;;;5034811;28;20025;-85
2021/04/26 02:39:08;;;;;;;10.33;4.47;;;6.90;74.70;;;;;;5030430;28;20144;-85
2021/04/26 02:41:40;;;;;;;12.60;4.33;;;6.90;74.10;;;;;;5030640;28;20073;-86
2021/04/26 02:44:29;;;;;;;11.63;4.50;;;7.00;74.10;;;;;;5032267;28;20017;-85
2021/04/26 02:47:08;;;;;;;13.20;4.55;;;7.00;73.30;;;;;;5031238;28;20025;-85
2021/04/26 02:49:34;;;;;;;10.25;4.38;;;7.00;73.20;;;;;;5033636;28;20033;-84
2021/04/26 02:52:01;;;;;;;12.13;4.60;;;7.00;72.90;;;;;;5034026;28;20037;-84
2021/04/26 02:54:27;;;;;;;8.80;4.37;;;7.00;73.10;;;;;;5032285;28;20033;-85
2021/04/26 02:56:57;;;;;;;9.97;4.60;;;7.00;73.00;;;;;;5030181;28;20025;-85
2021/04/26 02:59:24;;;;;;;10.83;4.57;;;7.00;72.80;;;;;;5029761;28;20036;-85
2021/04/26 03:01:51;;;;;;;11.00;4.30;;;6.90;73.00;;;;;;5030068;28;20032;-85
2021/04/26 03:04:18;;;;;;;10.20;5.37;;;6.90;72.90;;;;;;5030060;28;20021;-85
2021/04/26 03:06:49;;;;;;;10.23;4.20;;;6.90;72.90;;;;;;5031578;28;20083;-85
2021/04/26 03:09:15;;;;;;;9.37;4.40;;;6.80;73.20;;;;;;5032694;28;20076;-86
2021/04/26 03:11:43;;;;;;;10.47;4.30;;;6.80;73.20;;;;;;5033196;28;20029;-86
2021/04/26 03:14:10;;;;;;;8.60;4.30;;;6.80;73.90;;;;;;5030044;28;20060;-85
2021/04/26 03:16:36;;;;;;;10.27;4.00;;;6.70;73.20;;;;;;5031065;28;20026;-85
2021/04/26 03:19:04;;;;;;;7.67;4.40;;;6.70;73.50;;;;;;5034981;28;20128;-85
2021/04/26 03:21:30;;;;;;;10.63;4.30;;;6.70;73.30;;;;;;5031965;28;20025;-88
2021/04/26 03:23:56;;;;;;;8.37;3.80;;;6.70;73.40;;;;;;5030311;28;20032;-86
2021/04/26 03:26:22;;;;;;;10.90;4.33;;;6.70;74.30;;;;;;5029766;28;20018;-86
2021/04/26 03:28:49;;;;;;;8.43;4.10;;;6.60;73.40;;;;;;5031032;28;20490;-86
2021/04/26 03:31:15;;;;;;;8.77;4.20;;;6.70;73.40;;;;;;5029404;28;20053;-85
2021/04/26 03:33:41;;;;;;;11.83;4.53;;;6.70;73.30;;;;;;5031244;28;20025;-85
2021/04/26 03:36:07;;;;;;;10.13;4.33;;;6.60;73.40;;;;;;5029791;28;20175;-85
2021/04/26 03:38:35;;;;;;;8.73;4.27;;;6.60;73.40;;;;;;5030854;28;20347;-86
2021/04/26 03:41:02;;;;;;;8.40;4.13;;;6.60;73.40;;;;;;5031857;28;20052;-87
2021/04/26 03:43:27;;;;;;;11.57;4.80;;;6.60;73.50;;;;;;5030874;28;20668;-87
2021/04/26 03:45:58;;;;;;;10.30;4.27;;;6.50;73.40;;;;;;5029652;28;20113;-87
2021/04/26 03:48:24;;;;;;;14.13;4.47;;;6.60;73.30;;;;;;5031595;28;20160;-89
2021/04/26 03:50:51;;;;;;;12.37;4.63;;;6.50;73.90;;;;;;5029362;28;20033;-87
2021/04/26 03:53:16;;;;;;;11.67;4.40;;;6.50;77.80;;;;;;5029567;28;20069;-86
2021/04/26 03:55:42;;;;;;;11.30;4.43;;;6.30;77.70;;;;;;5029467;28;20029;-87
2021/04/26 03:58:08;;;;;;;10.07;4.20;;;6.20;76.30;;;;;;5030788;28;20030;-87
2021/04/26 04:00:34;;;;;;;10.37;4.13;;;6.00;77.00;;;;;;5028709;28;20029;-87
2021/04/26 04:03:08;;;;;;;9.97;4.90;;;5.90;77.80;;;;;;5029294;28;20367;-86
2021/04/26 04:05:34;;;;;;;10.00;4.50;;;5.80;77.90;;;;;;5029033;28;20576;-87
2021/04/26 04:07:59;;;;;;;8.37;4.00;;;5.90;78.30;;;;;;5029169;28;20052;-87
2021/04/26 04:10:25;;;;;;;8.90;4.37;;;5.90;77.50;;;;;;5028642;28;20035;-87
2021/04/26 04:12:51;;;;;;;12.00;3.60;;;5.90;77.00;;;;;;5032086;28;20030;-87
2021/04/26 04:15:17;;;;;;;9.60;3.80;;;5.80;77.30;;;;;;5031624;28;20084;-87
2021/04/26 04:17:43;;;;;;;8.20;3.77;;;5.80;77.50;;;;;;5031561;28;20036;-87
2021/04/26 04:20:10;;;;;;;9.53;4.30;;;5.80;77.20;;;;;;5031774;28;20029;-87
2021/04/26 04:22:36;;;;;;;9.20;3.80;;;5.80;77.50;;;;;;5031637;28;20029;-87
2021/04/26 04:25:03;;;;;;;10.60;4.17;;;5.90;76.60;;;;;;5029081;28;20022;-88
2021/04/26 04:27:29;;;;;;;10.70;3.67;;;6.00;76.20;;;;;;5030500;28;20416;-87
2021/04/26 04:29:55;;;;;;;9.20;3.80;;;6.10;75.90;;;;;;5029146;28;20207;-87
2021/04/26 04:32:20;;;;;;;9.33;3.70;;;6.20;75.60;;;;;;5033881;28;20108;-87
2021/04/26 04:34:46;;;;;;;10.33;4.23;;;6.20;75.60;;;;;;5036211;28;20026;-86
2021/04/26 04:37:12;;;;;;;9.57;3.80;;;6.20;76.40;;;;;;5038163;28;20450;-86
2021/04/26 04:39:37;;;;;;;10.57;4.93;;;6.30;75.40;;;;;;5037059;28;20056;-86
2021/04/26 04:42:03;;;;;;;10.60;4.13;;;6.20;75.70;;;;;;5043763;28;20013;-86
2021/04/26 04:44:29;;;;;;;12.43;4.40;;;6.30;75.70;;;;;;5040772;28;20455;-83
2021/04/26 04:46:55;;;;;;;9.40;4.00;;;6.20;75.60;;;;;;5042668;28;20051;-88
2021/04/26 04:49:22;;;;;;;7.27;4.10;;;6.20;75.60;;;;;;5041358;28;20029;-87
2021/04/26 04:51:48;;;;;;;9.90;4.13;;;6.30;75.40;;;;;;5042385;28;20204;-86
2021/04/26 04:54:14;;;;;;;8.40;4.13;;;6.10;75.60;;;;;;5048275;28;20159;-86
2021/04/26 04:56:39;;;;;;;9.47;4.03;;;6.20;75.80;;;;;;5043327;28;20026;-85
2021/04/26 04:59:09;;;;;;;9.40;4.20;;;6.20;75.40;;;;;;5040792;28;20107;-84
2021/04/26 05:01:34;;;;;;;8.20;4.03;;;6.20;75.80;;;;;;5038210;28;20097;-86
2021/04/26 05:04:01;;;;;;;8.60;4.20;;;6.20;75.70;;;;;;5045908;28;20048;-86
2021/04/26 05:06:26;;;;;;;10.90;4.43;;;6.20;75.70;;;;;;5052373;28;20022;-87
2021/04/26 05:08:52;;;;;;;10.17;4.80;;;6.20;75.80;;;;;;5048987;28;20030;-84
2021/04/26 05:11:18;;;;;;;19.23;4.37;;;6.10;76.00;;;;;;5061831;28;20124;-86
2021/04/26 05:13:44;;;;;;;12.47;4.23;;;6.10;76.20;;;;;;5038222;28;20025;-86
2021/04/26 05:16:10;;;;;;;11.50;5.03;;;6.20;76.60;;;;;;5047620;28;20057;-85
2021/04/26 05:18:37;;;;;;;12.00;4.57;;;6.20;76.00;;;;;;5068081;22;20041;-81
2021/04/26 05:21:03;;;;;;;14.37;5.13;;;6.30;75.70;;;;;;5050633;28;20029;-83
2021/04/26 05:23:30;;;;;;;12.70;5.23;;;6.30;75.60;;;;;;5050981;28;20017;-82
2021/04/26 05:25:56;;;;;;;11.30;4.90;;;6.40;75.20;;;;;;5068958;28;20047;-83
2021/04/26 05:28:22;;;;;;;9.47;4.83;;;6.40;75.20;;;;;;5051492;28;20028;-83
2021/04/26 05:30:47;;;;;;;12.23;5.07;;;6.50;75.10;;;;;;5068704;28;20167;-83
2021/04/26 05:33:15;;;;;;;13.53;5.17;;;6.50;74.70;;;;;;5068238;28;20033;-84
2021/04/26 05:35:41;;;;;;;11.53;5.40;;;6.70;74.50;;;;;;5066504;28;20085;-81
2021/04/26 05:38:11;;;;;;;11.57;5.10;;;6.70;74.10;;;;;;5053287;28;20160;-83
2021/04/26 05:40:37;;;;;;;11.43;5.27;;;6.80;74.00;;;;;;5052478;28;20025;-86
2021/04/26 05:43:03;;;;;;;10.43;5.07;;;6.80;73.80;;;;;;5051388;28;20020;-83
2021/04/26 05:45:29;;;;;;;11.10;5.10;;;6.80;73.80;;;;;;5049701;28;20024;-84
2021/04/26 05:47:55;;;;;;;12.03;4.87;;;6.90;73.60;;;;;;5049069;28;20063;-84
2021/04/26 05:50:21;;;;;;;10.60;4.80;;;6.90;73.20;;;;;;5064885;28;20028;-81
2021/04/26 05:52:46;;;;;;;13.87;5.40;;;6.90;73.00;;;;;;5044213;28;20082;-82
2021/04/26 05:55:12;;;;;;;12.77;5.80;;;6.90;73.00;;;;;;5048654;28;20175;-83
2021/04/26 05:57:38;;;;;;;15.10;5.50;;;6.90;73.10;;;;;;5044009;28;20056;-87
2021/04/26 06:00:05;;;;;;;12.07;5.23;;;7.00;73.00;;;;;;5073609;28;20029;-88
2021/04/26 06:02:30;;;;;;;11.83;5.27;;;7.10;72.50;;;;;;5057770;28;20086;-84
2021/04/26 06:04:56;;;;;;;10.00;5.07;;;7.20;72.00;;;;;;5039741;28;20058;-87
2021/04/26 06:07:22;;;;;;;9.80;5.20;;;7.30;72.00;;;;;;5058688;28;20025;-86
2021/04/26 06:09:47;;;;;;;13.03;5.73;;;7.30;72.20;;;;;;5054130;28;20028;-85
2021/04/26 06:12:13;;;;;;;12.30;4.90;;;7.40;71.60;;;;;;5041386;28;20128;-84
2021/04/26 06:14:39;;;;;;;11.90;5.67;;;7.40;71.50;;;;;;5058121;28;20048;-88
2021/04/26 06:17:04;;;;;;;12.50;5.50;;;7.40;71.10;;;;;;5036424;28;20029;-84
2021/04/26 06:19:30;;;;;;;15.33;5.70;;;7.30;70.80;;;;;;5056362;28;20052;-83
2021/04/26 06:21:55;;;;;;;12.90;5.57;;;7.50;71.50;;;;;;5045362;28;20037;-86
2021/04/26 06:24:21;;;;;;;14.37;5.33;;;7.50;71.40;;;;;;5041688;28;20462;-83
2021/04/26 06:26:47;;;;;;;14.40;5.07;;;7.60;71.30;;;;;;5057556;28;20098;-84
2021/04/26 06:29:12;;;;;;;9.57;5.00;;;7.60;70.80;;;;;;5034684;28;20046;-83
2021/04/26 06:31:38;;;;;;;10.43;5.30;;;7.70;70.50;;;;;;5035834;28;20474;-87
2021/04/26 06:34:04;;;;;;;10.87;5.50;;;7.80;70.50;;;;;;5053982;28;20052;-87
2021/04/26 06:36:30;;;;;;;9.27;4.90;;;7.80;70.40;;;;;;5035555;28;20025;-86
2021/04/26 06:38:55;;;;;;;10.60;4.70;;;7.90;69.60;;;;;;5036733;28;20017;-86
2021/04/26 06:41:22;;;;;;;10.53;5.63;;;7.90;68.30;;;;;;5056398;28;20048;-86
2021/04/26 06:43:47;;;;;;;10.30;5.37;;;7.90;68.20;;;;;;5054734;28;20116;-86
2021/04/26 06:46:13;;;;;;;10.30;4.87;;;7.90;67.80;;;;;;5055555;28;20067;-86
2021/04/26 06:48:39;;;;;;;10.23;5.30;;;8.00;67.90;;;;;;5037758;28;20029;-86
2021/04/26 06:51:04;;;;;;;11.10;4.63;;;8.00;67.70;;;;;;5036307;28;20087;-86
2021/04/26 06:53:30;;;;;;;9.97;4.90;;;8.10;67.10;;;;;;5053152;28;20037;-87
2021/04/26 06:55:57;;;;;;;9.23;4.73;;;8.20;66.90;;;;;;5034037;28;20033;-86
2021/04/26 06:58:23;;;;;;;10.57;5.00;;;8.30;66.20;;;;;;5034458;28;20033;-86
2021/04/26 07:00:48;;;;;;;11.43;4.80;;;8.30;66.30;;;;;;5034828;28;20470;-86
2021/04/26 07:03:14;;;;;;;9.77;5.10;;;8.40;66.30;;;;;;5056765;28;20024;-86
2021/04/26 07:05:40;;;;;;;11.33;4.90;;;8.40;65.50;;;;;;5034834;28;20106;-87
2021/04/26 07:08:06;;;;;;;9.93;5.17;;;8.50;65.70;;;;;;5034292;28;20705;-88
2021/04/26 07:10:33;;;;;;;9.00;4.90;;;8.50;65.40;;;;;;5033714;28;20043;-87
2021/04/26 07:12:58;;;;;;;9.43;4.80;;;8.50;65.60;;;;;;5036495;28;20115;-85
2021/04/26 07:15:24;;;;;;;13.23;5.80;;;8.60;66.10;;;;;;5056407;28;20059;-86
2021/04/26 07:17:50;;;;;;;11.97;5.20;;;8.60;66.10;;;;;;5056986;28;20044;-86
2021/04/26 07:20:15;;;;;;;9.13;4.53;;;8.60;64.50;;;;;;5035745;28;20028;-85
2021/04/26 07:22:42;;;;;;;8.83;4.57;;;8.60;63.30;;;;;;5051431;28;20044;-86
2021/04/26 07:25:08;;;;;;;7.43;3.90;;;8.70;63.10;;;;;;5051183;28;20025;-86
2021/04/26 07:27:34;;;;;;;7.30;3.90;;;8.80;63.90;;;;;;5033719;28;20052;-82
2021/04/26 07:30:00;;;;;;;7.53;3.23;;;8.90;63.40;;;;;;5051646;28;20450;-83
2021/04/26 07:32:26;;;;;;;6.60;3.17;;;8.90;61.70;;;;;;5034373;28;20063;-86
2021/04/26 07:34:52;;;;;;;5.43;2.60;;;9.00;61.30;;;;;;5045120;28;20037;-84
2021/04/26 07:37:18;;;;;;;7.77;2.60;;;9.00;59.90;;;;;;5034043;28;20033;-87
2021/04/26 07:39:45;;;;;;;5.23;2.73;;;9.10;58.50;;;;;;5042249;28;20080;-86
2021/04/26 07:42:11;;;;;;;4.20;2.60;;;9.10;57.50;;;;;;5044491;28;20025;-86
2021/04/26 07:44:38;;;;;;;5.27;2.10;;;9.10;56.90;;;;;;5056797;28;20035;-86
2021/04/26 07:47:04;;;;;;;5.87;2.00;;;9.20;55.40;;;;;;5056844;28;20052;-87
2021/04/26 07:49:30;;;;;;;2.93;1.63;;;9.20;55.30;;;;;;5056356;28;20109;-87
2021/04/26 07:51:55;;;;;;;6.57;2.07;;;9.30;54.50;;;;;;5074459;28;20021;-86
2021/04/26 07:54:21;;;;;;;6.60;1.90;;;9.30;53.40;;;;;;5056293;28;20032;-87
2021/04/26 07:56:47;;;;;;;6.57;2.00;;;9.40;52.70;;;;;;5073068;28;20025;-86
2021/04/26 07:59:13;;;;;;;4.87;1.83;;;9.40;52.90;;;;;;5054024;28;20117;-86
2021/04/26 08:01:39;;;;;;;3.40;1.87;;;9.40;53.10;;;;;;5054493;28;20025;-85
2021/04/26 08:04:05;;;;;;;4.53;1.60;;;9.40;52.80;;;;;;5055349;28;20020;-86
2021/04/26 08:06:31;;;;;;;3.43;1.70;;;9.40;50.30;;;;;;5055001;28;20029;-86
2021/04/26 08:08:57;;;;;;;4.77;1.60;;;9.40;49.70;;;;;;5053697;28;20105;-86
2021/04/26 08:11:23;;;;;;;3.63;1.40;;;9.50;50.30;;;;;;5045868;28;20110;-86
2021/04/26 08:13:48;;;;;;;4.73;1.60;;;9.40;50.30;;;;;;5054322;28;20035;-86
2021/04/26 08:16:14;;;;;;;5.43;2.00;;;9.50;50.50;;;;;;5039529;28;20025;-85
2021/04/26 08:18:40;;;;;;;4.77;1.93;;;9.50;51.80;;;;;;5044187;28;20102;-85
2021/04/26 08:21:06;;;;;;;4.90;2.03;;;9.60;50.70;;;;;;5043400;28;20029;-85
2021/04/26 08:23:32;;;;;;;6.43;1.80;;;9.60;50.30;;;;;;5044065;28;20400;-85
2021/04/26 08:25:58;;;;;;;5.77;1.70;;;9.60;50.00;;;;;;5045446;28;20035;-86
2021/04/26 08:28:26;;;;;;;4.33;1.80;;;9.60;50.00;;;;;;5043460;28;20025;-86
2021/04/26 08:30:51;;;;;;;4.07;1.77;;;9.60;50.70;;;;;;5051689;28;20025;-85
2021/04/26 08:33:17;;;;;;;4.57;2.10;;;9.60;49.90;;;;;;5034701;28;20446;-85
2021/04/26 08:35:43;;;;;;;3.33;1.50;;;9.70;50.20;;;;;;5033960;28;20095;-86
2021/04/26 08:38:09;;;;;;;6.17;1.83;;;9.70;50.80;;;;;;5033328;28;20036;-88
2021/04/26 08:40:37;;;;;;;5.97;1.80;;;9.70;50.50;;;;;;5043726;28;20080;-86
2021/04/26 08:43:08;;;;;;;6.40;1.90;;;9.80;50.30;;;;;;5051297;28;20045;-86
2021/04/26 08:45:34;;;;;;;139.73;10.90;;;9.70;49.10;;;;;;5049503;28;20270;-86
2021/04/26 08:48:04;;;;;;;13.17;2.53;;;9.80;49.40;;;;;;5050367;28;20097;-87
2021/04/26 08:50:31;;;;;;;5.77;2.30;;;9.80;49.20;;;;;;5045617;28;20032;-85
2021/04/26 08:52:56;;;;;;;10.43;2.10;;;9.80;49.60;;;;;;5059308;28;20048;-88
2021/04/26 08:55:22;;;;;;;4.97;1.90;;;9.80;49.90;;;;;;5039034;28;20473;-85
2021/04/26 08:57:49;;;;;;;4.80;2.03;;;9.90;49.10;;;;;;5040355;28;20120;-85
2021/04/26 09:00:17;;;;;;;5.50;2.30;;;9.90;49.40;;;;;;5036641;28;20029;-85
2021/04/26 09:02:56;;;;;;;6.57;1.97;;;9.90;49.50;;;;;;5036435;28;20532;-85
2021/04/26 09:05:33;;;;;;;4.65;1.98;;;10.00;49.50;;;;;;5036908;28;20162;-86
2021/04/26 09:08:00;;;;;;;8.10;2.40;;;9.90;48.80;;;;;;5038649;28;20047;-86
2021/04/26 09:10:36;;;;;;;6.27;2.47;;;9.90;49.10;;;;;;5036890;28;20102;-84
2021/04/26 09:13:21;;;;;;;4.37;2.03;;;9.90;49.00;;;;;;5037057;28;20112;-87
2021/04/26 09:16:10;;;;;;;4.17;2.20;;;9.90;49.00;;;;;;5041574;28;20025;-85
2021/04/26 09:18:58;;;;;;;7.50;2.60;;;9.90;49.60;;;;;;5040067;28;20052;-87
2021/04/26 09:21:32;;;;;;;5.27;2.50;;;9.90;49.40;;;;;;5065185;28;20029;-85
2021/04/26 09:24:25;;;;;;;4.17;2.17;;;10.00;49.60;;;;;;5048085;28;20091;-85
2021/04/26 09:27:00;;;;;;;4.50;2.00;;;9.90;48.30;;;;;;5063330;28;20036;-85
2021/04/26 09:29:28;;;;;;;5.50;2.57;;;10.00;49.10;;;;;;5045215;28;20013;-87
2021/04/26 09:32:05;;;;;;;4.83;2.40;;;10.00;49.20;;;;;;5044024;28;20127;-85
2021/04/26 09:34:43;;;;;;;4.33;2.13;;;10.00;48.90;;;;;;5043626;28;20029;-86
2021/04/26 09:37:29;;;;;;;4.67;2.00;;;10.10;47.70;;;;;;5049699;28;20040;-87
2021/04/26 09:40:00;;;;;;;3.63;2.23;;;10.10;48.30;;;;;;5052400;28;20079;-88
2021/04/26 09:42:45;;;;;;;5.40;2.40;;;10.20;47.70;;;;;;5043114;28;20166;-86
2021/04/26 09:45:24;;;;;;;4.30;2.00;;;10.20;48.40;;;;;;5049957;28;20039;-87
2021/04/26 09:48:09;;;;;;;3.83;2.10;;;10.20;48.20;;;;;;5069330;28;20025;-87
2021/04/26 09:51:04;;;;;;;4.80;2.40;;;10.30;47.80;;;;;;5037590;28;20373;-84
2021/04/26 09:53:45;;;;;;;4.67;2.17;;;10.30;47.10;;;;;;5035273;28;20033;-84
2021/04/26 09:56:13;;;;;;;5.13;2.40;;;10.30;47.30;;;;;;5053727;28;20055;-85
2021/04/26 09:58:40;;;;;;;4.53;2.47;;;10.20;47.00;;;;;;5034850;28;20123;-85
2021/04/26 10:01:06;;;;;;;3.27;1.87;;;10.20;46.70;;;;;;5039133;28;20044;-84
2021/04/26 10:03:33;;;;;;;5.40;2.60;;;10.30;47.00;;;;;;5039484;28;20025;-85
2021/04/26 10:05:59;;;;;;;4.17;2.50;;;10.30;46.20;;;;;;5038399;28;20021;-85
2021/04/26 10:08:27;;;;;;;4.60;2.43;;;10.30;46.40;;;;;;5041371;28;20116;-89
2021/04/26 10:10:53;;;;;;;4.65;2.33;;;10.30;46.20;;;;;;5043293;28;20025;-86
2021/04/26 10:13:21;;;;;;;3.80;2.13;;;10.30;46.90;;;;;;5044818;28;20047;-87
2021/04/26 10:16:00;;;;;;;5.10;2.57;;;10.30;47.20;;;;;;5041231;28;20025;-84
2021/04/26 10:18:35;;;;;;;5.97;2.47;;;10.40;46.70;;;;;;5057341;28;20453;-86
2021/04/26 10:21:21;;;;;;;4.30;2.30;;;10.40;47.00;;;;;;5039540;28;20033;-83
2021/04/26 10:23:49;;;;;;;5.27;2.60;;;10.50;47.00;;;;;;5041215;28;20085;-84
2021/04/26 10:26:38;;;;;;;5.00;2.27;;;10.50;46.80;;;;;;5041873;28;20090;-84
2021/04/26 10:29:18;;;;;;;6.25;2.25;;;10.50;47.30;;;;;;5054090;28;20104;-84
2021/04/26 10:32:02;;;;;;;;;;;10.50;47.20;;;;;;5058934;28;20021;-85
2021/04/26 10:34:34;;;;;;;7.50;3.00;;;10.50;46.70;;;;;;5036325;28;19905;-83
2021/04/26 10:37:03;;;;;;;7.87;2.73;;;10.60;46.80;;;;;;5052927;28;20509;-83
2021/04/26 10:39:32;;;;;;;5.05;2.50;;;10.60;45.80;;;;;;5052951;28;20063;-84
2021/04/26 10:42:01;;;;;;;5.03;2.50;;;10.60;45.80;;;;;;5054099;28;20029;-85
2021/04/26 10:44:39;;;;;;;6.93;2.58;;;10.70;46.00;;;;;;5039894;28;20028;-86
2021/04/26 10:47:14;;;;;;;5.60;2.70;;;10.70;46.50;;;;;;5048350;28;20055;-85
2021/04/26 10:49:40;;;;;;;5.40;2.30;;;10.70;46.50;;;;;;5049673;28;20029;-85
2021/04/26 10:52:33;;;;;;;7.57;2.60;;;10.80;46.40;;;;;;5067569;28;20071;-85
2021/04/26 10:55:32;;;;;;;8.77;3.07;;;10.80;46.20;;;;;;5066820;28;20035;-86
2021/04/26 10:58:01;;;;;;;5.30;2.33;;;10.90;44.40;;;;;;5042120;28;20061;-87
2021/04/26 11:00:27;;;;;;;5.88;2.45;;;10.90;45.00;;;;;;5041833;28;20064;-84
2021/04/26 11:02:58;;;;;;;5.47;2.50;;;10.90;45.10;;;;;;5052846;28;20021;-86
2021/04/26 11:05:29;;;;;;;5.03;2.43;;;10.90;45.00;;;;;;5054790;28;20119;-85
2021/04/26 11:10:40;;;;;;;8.35;2.65;;;11.10;44.40;;;;;;5065873;28;20032;-84
2021/04/26 11:13:31;;;;;;;5.80;2.40;;;11.10;43.80;;;;;;5047918;28;20029;-84
2021/04/26 11:16:12;;;;;;;4.60;2.40;;;11.10;45.00;;;;;;5046414;28;20094;-85
2021/04/26 11:18:54;;;;;;;7.67;2.90;;;11.10;44.90;;;;;;5042169;28;20493;-85
2021/04/26 11:24:10;;;;;;;3.22;2.22;;;11.20;43.60;;;;;;5045463;28;20191;-84
2021/04/26 11:26:36;;;;;;;4.87;2.40;;;11.20;43.70;;;;;;5033253;28;20078;-84
2021/04/26 11:29:03;;;;;;;7.90;2.87;;;11.20;44.70;;;;;;5032892;28;20421;-84
2021/04/26 11:31:44;;;;;;;6.70;2.60;;;11.20;43.50;;;;;;5033690;28;20083;-84
2021/04/26 11:34:18;;;;;;;4.33;2.17;;;11.30;44.10;;;;;;5052803;28;20036;-85
2021/04/26 11:37:08;;;;;;;4.23;2.30;;;11.30;44.50;;;;;;5053342;28;20043;-84
2021/04/26 11:39:37;;;;;;;5.20;2.93;;;11.30;44.70;;;;;;5035238;28;20025;-84
2021/04/26 11:42:04;;;;;;;5.63;2.73;;;11.30;44.40;;;;;;5052839;28;20021;-84
2021/04/26 11:44:32;;;;;;;7.13;2.70;;;11.30;44.70;;;;;;5035180;28;20025;-85
2021/04/26 11:47:09;;;;;;;4.00;2.50;;;11.30;43.90;;;;;;5054275;28;20036;-87
2021/04/26 11:49:41;;;;;;;5.37;3.10;;;11.40;44.40;;;;;;5047801;28;20100;-87
2021/04/26 11:52:22;;;;;;;5.80;3.23;;;11.30;44.40;;;;;;5069442;28;20025;-86
2021/04/26 11:54:53;;;;;;;5.53;2.53;;;11.40;44.70;;;;;;5068729;28;20024;-86
2021/04/26 11:57:23;;;;;;;4.40;2.57;;;11.40;44.70;;;;;;5066034;28;20040;-86
2021/04/26 11:59:56;;;;;;;5.97;2.90;;;11.40;44.60;;;;;;5062189;28;20017;-88
2021/04/26 12:02:28;;;;;;;6.63;2.90;;;11.50;43.60;;;;;;5033671;28;20032;-88
2021/04/26 12:04:55;;;;;;;4.73;2.57;;;11.50;44.00;;;;;;5045786;28;20067;-88
2021/04/26 12:07:21;;;;;;;4.97;2.60;;;11.50;44.70;;;;;;5034190;28;20025;-85
2021/04/26 12:10:01;;;;;;;4.27;2.50;;;11.50;44.90;;;;;;5054829;28;20083;-85
2021/04/26 12:12:29;;;;;;;5.87;2.90;;;11.60;44.60;;;;;;5035178;28;20428;-85
2021/04/26 12:14:57;;;;;;;7.33;2.43;;;11.60;45.10;;;;;;5051408;28;20025;-84
2021/04/26 12:17:30;;;;;;;5.67;2.50;;;11.60;45.90;;;;;;5053563;28;20029;-85
2021/04/26 12:19:56;;;;;;;4.50;2.50;;;11.60;44.70;;;;;;5034465;28;20041;-84
2021/04/26 12:22:24;;;;;;;10.00;3.33;;;11.70;42.50;;;;;;5033573;28;20127;-85
2021/04/26 12:24:54;;;;;;;4.80;2.70;;;11.70;42.20;;;;;;5033502;28;20056;-83
2021/04/26 12:27:22;;;;;;;;;;;11.80;42.20;;;;;;5033910;28;20028;-83
2021/04/26 12:29:48;;;;;;;8.27;2.60;;;11.90;41.40;;;;;;5051816;28;20278;-83
2021/04/26 12:32:19;;;;;;;7.67;2.60;;;11.80;42.00;;;;;;5051513;28;20048;-84
2021/04/26 12:34:48;;;;;;;5.40;2.60;;;11.90;42.50;;;;;;5051203;28;20125;-83
2021/04/26 12:37:15;;;;;;;4.57;2.63;;;11.90;43.30;;;;;;5032302;28;20163;-83
2021/04/26 12:39:41;;;;;;;6.47;2.97;;;12.00;43.30;;;;;;5050437;28;20025;-87
2021/04/26 12:42:15;;;;;;;4.87;2.80;;;12.00;43.50;;;;;;5052297;28;20021;-86
2021/04/26 12:44:42;;;;;;;3.93;2.47;;;12.00;43.20;;;;;;5033861;28;20342;-85
2021/04/26 12:47:20;;;;;;;7.53;2.90;;;12.00;43.10;;;;;;5036634;28;20021;-86
2021/04/26 12:49:46;;;;;;;8.73;3.30;;;12.00;42.80;;;;;;5036132;28;20029;-86
2021/04/26 12:52:18;;;;;;;5.93;2.60;;;12.00;43.10;;;;;;5034920;28;20040;-87
2021/04/26 12:55:08;;;;;;;9.20;3.33;;;12.00;42.60;;;;;;5037982;28;20032;-85
2021/04/26 12:57:34;;;;;;;6.10;3.30;;;12.10;42.90;;;;;;5055982;28;20025;-87
2021/04/26 13:00:00;;;;;;;6.93;2.80;;;12.20;42.60;;;;;;5037714;28;20074;-86
2021/04/26 13:02:29;;;;;;;6.83;3.30;;;12.20;42.40;;;;;;5057604;28;20017;-85
2021/04/26 13:04:59;;;;;;;4.78;2.70;;;12.20;43.00;;;;;;5060100;28;20078;-85
2021/04/26 13:07:26;;;;;;;6.40;3.20;;;12.20;43.10;;;;;;5047298;28;20048;-85